createdAt,value
2023-04-05T00:01:30.963Z,102001.13
2023-04-05T00:03:58.128Z,101997.59
2023-04-05T00:06:28.854Z,101988.97
2023-04-05T00:08:58.308Z,101988.84
2023-04-05T00:11:25.204Z,101993.97
2023-04-05T00:13:51.539Z,101990.22
2023-04-05T00:16:17.996Z,101981.59
2023-04-05T00:18:51.426Z,101991.59
2023-04-05T00:21:18.157Z,101984.34
2023-04-05T00:23:45.106Z,101980.72
2023-04-05T00:26:11.664Z,101977.09
2023-04-05T00:28:40.781Z,101983.59
2023-04-05T00:31:07.102Z,101971.34
2023-04-05T00:33:33.575Z,101972.09
2023-04-05T00:36:10.088Z,101980.06
2023-04-05T00:38:36.453Z,101975.84
2023-04-05T00:41:02.807Z,101978.72
2023-04-05T00:43:29.191Z,101971.44
2023-04-05T00:45:56.309Z,101972.97
2023-04-05T00:48:22.675Z,101972.81
2023-04-05T00:50:49.217Z,101964.19
2023-04-05T00:53:18.441Z,101972.81
2023-04-05T00:55:45.290Z,101977.09
2023-04-05T00:58:11.625Z,101974.09
2023-04-05T01:00:38.808Z,101968.31
2023-04-05T01:03:05.286Z,101971.22
2023-04-05T01:05:44.359Z,101965.44
2023-04-05T01:08:28.971Z,101961.81
2023-04-05T01:10:55.918Z,101961.94
2023-04-05T01:13:22.754Z,101959.84
2023-04-05T01:15:49.086Z,101960.56
2023-04-05T01:18:15.436Z,101959.84
2023-04-05T01:20:52.947Z,101960.56
2023-04-05T01:23:19.224Z,101967.06
2023-04-05T01:25:59.941Z,101961.31
2023-04-05T01:28:35.806Z,101959.84
2023-04-05T01:31:06.625Z,101964.06
2023-04-05T01:33:32.924Z,101956.81
2023-04-05T01:36:19.451Z,101961.06
2023-04-05T01:38:46.319Z,101966.81
2023-04-05T01:41:12.626Z,101961.06
2023-04-05T01:43:38.969Z,101957.44
2023-04-05T01:46:05.577Z,101951.69
2023-04-05T01:48:32.344Z,101956.03
2023-04-05T01:51:00.103Z,101955.31
2023-04-05T01:53:26.495Z,101951.81
2023-04-05T01:55:52.825Z,101948.19
2023-04-05T01:58:19.188Z,101951.06
2023-04-05T02:00:46.190Z,101946.06
2023-04-05T02:03:12.694Z,101938.03
2023-04-05T02:05:39.122Z,101932.28
2023-04-05T02:08:05.467Z,101943.66
2023-04-05T02:10:31.825Z,101945.06
2023-04-05T02:12:58.248Z,101937.91
2023-04-05T02:19:23.004Z,101946.53
2023-04-05T02:21:52.326Z,101939.28
2023-04-05T02:24:19.213Z,101946.53
2023-04-05T02:26:45.550Z,101943.66
2023-04-05T02:29:11.903Z,101938.03
2023-04-05T02:31:38.294Z,101936.56
2023-04-05T02:34:05.824Z,101935.16
2023-04-05T02:36:32.141Z,101930.81
2023-04-05T02:38:58.473Z,101934.41
2023-04-05T02:41:25.977Z,101938.03
2023-04-05T02:43:52.326Z,101935.03
2023-04-05T02:46:18.776Z,101929.28
2023-04-05T02:48:45.743Z,101917.78
2023-04-05T02:51:14.218Z,101922.78
2023-04-05T02:53:41.487Z,101920.78
2023-04-05T02:56:13.597Z,101931.53
2023-04-05T02:58:43.109Z,101920.78
2023-04-05T03:01:10.354Z,101913.66
2023-04-05T03:03:37.472Z,101920.16
2023-04-05T03:06:10.772Z,101921.03
2023-04-05T03:08:49.027Z,101924.53
2023-04-05T03:11:19.860Z,101921.66
2023-04-05T03:13:50.847Z,101920.31
2023-04-05T03:16:36.260Z,101913.81
2023-04-05T03:19:09.867Z,101915.28
2023-04-05T03:21:41.010Z,101919.56
2023-04-05T03:24:19.004Z,101912.28
2023-04-05T03:26:45.422Z,101905.16
2023-04-05T03:29:13.036Z,101910.78
2023-04-05T03:31:39.534Z,101903.53
2023-04-05T03:34:08.915Z,101900.66
2023-04-05T03:36:43.016Z,101896.28
2023-04-05T03:39:20.991Z,101903.53
2023-04-05T03:41:47.963Z,101896.41
2023-04-05T03:44:14.333Z,101887.00
2023-04-05T03:46:40.713Z,101895.03
2023-04-05T03:49:07.600Z,101884.25
2023-04-05T03:51:33.981Z,101877.75
2023-04-05T03:54:00.403Z,101877.75
2023-04-05T03:56:30.700Z,101883.53
2023-04-05T03:59:01.195Z,101879.16
2023-04-05T04:01:28.771Z,101875.50
2023-04-05T04:03:55.244Z,101871.28
2023-04-05T04:06:27.119Z,101877.03
2023-04-05T04:08:53.617Z,101882.03
2023-04-05T04:11:19.937Z,101887.13
2023-04-05T04:13:47.338Z,101882.16
2023-04-05T04:16:32.809Z,101886.53
2023-04-05T04:19:28.111Z,101890.16
2023-04-05T04:22:04.331Z,101893.16
2023-04-05T04:25:09.795Z,101901.03
2023-04-05T04:28:06.779Z,101890.28
2023-04-05T04:30:58.657Z,101890.28
2023-04-05T04:33:49.540Z,101896.03
2023-04-05T04:36:35.116Z,101901.03
2023-04-05T04:39:44.489Z,101893.03
2023-04-05T04:42:26.576Z,101888.28
2023-04-05T04:45:06.309Z,101893.28
2023-04-05T04:48:04.980Z,101891.78
2023-04-05T04:50:39.136Z,101893.16
2023-04-05T04:53:05.495Z,101895.28
2023-04-05T04:55:33.390Z,101897.19
2023-04-05T04:57:59.788Z,101888.69
2023-04-05T05:00:26.138Z,101895.06
2023-04-05T05:02:53.428Z,101899.75
2023-04-05T05:05:23.135Z,101892.50
2023-04-05T05:07:49.770Z,101882.94
2023-04-05T05:10:16.385Z,101891.44
2023-04-05T05:12:42.956Z,101893.34
2023-04-05T05:15:11.527Z,101886.38
2023-04-05T05:17:39.307Z,101889.59
2023-04-05T05:20:09.536Z,101887.00
2023-04-05T05:22:36.467Z,101888.50
2023-04-05T05:25:03.301Z,101884.25
2023-04-05T05:27:29.648Z,101893.00
2023-04-05T05:29:56.718Z,101896.03
2023-04-05T05:32:23.123Z,101900.38
2023-04-05T05:34:49.449Z,101891.75
2023-04-05T05:37:17.112Z,101886.13
2023-04-05T05:39:46.134Z,101894.75
2023-04-05T05:42:12.463Z,101881.78
2023-04-05T05:44:38.829Z,101888.25
2023-04-05T05:47:05.320Z,101886.78
2023-04-05T05:49:31.662Z,101891.88
2023-04-05T05:51:58.005Z,101883.25
2023-04-05T05:54:24.842Z,101891.75
2023-04-05T05:56:51.299Z,101880.25
2023-04-05T05:59:17.816Z,101881.78
2023-04-05T06:01:46.470Z,101881.78
2023-04-05T06:04:13.295Z,101871.00
2023-04-05T06:06:40.569Z,101880.50
2023-04-05T06:09:06.889Z,101870.53
2023-04-05T06:11:34.205Z,101879.91
2023-04-05T06:14:00.800Z,101880.63
2023-04-05T06:16:27.370Z,101880.03
2023-04-05T06:18:55.542Z,101876.28
2023-04-05T06:21:21.869Z,101886.53
2023-04-05T06:23:48.216Z,101888.66
2023-04-05T06:26:22.926Z,101884.25
2023-04-05T06:28:49.527Z,101873.53
2023-04-05T06:31:16.434Z,101883.53
2023-04-05T06:33:43.213Z,101882.16
2023-04-05T06:36:09.733Z,101870.00
2023-04-05T06:38:36.676Z,101868.00
2023-04-05T06:41:03.026Z,101868.00
2023-04-05T06:43:29.343Z,101872.66
2023-04-05T06:45:56.112Z,101869.78
2023-04-05T06:48:22.490Z,101865.53
2023-04-05T06:50:56.656Z,101858.28
2023-04-05T06:53:22.996Z,101856.28
2023-04-05T06:55:50.812Z,101858.50
2023-04-05T06:58:17.200Z,101857.00
2023-04-05T07:00:43.532Z,101862.78
2023-04-05T07:03:10.050Z,101864.78
2023-04-05T07:05:36.565Z,101875.78
2023-04-05T07:08:03.386Z,101881.53
2023-04-05T07:10:29.726Z,101890.78
2023-04-05T07:12:56.249Z,101878.66
2023-04-05T07:15:22.789Z,101888.06
2023-04-05T07:17:49.231Z,101880.03
2023-04-05T07:20:16.213Z,101888.06
2023-04-05T07:22:42.537Z,101883.16
2023-04-05T07:25:09.744Z,101887.53
2023-04-05T07:27:36.261Z,101877.53
2023-04-05T07:30:02.615Z,101874.66
2023-04-05T07:32:29.058Z,101875.28
2023-04-05T07:34:56.754Z,101881.66
2023-04-05T07:37:23.305Z,101868.78
2023-04-05T07:39:49.670Z,101865.25
2023-04-05T07:42:17.767Z,101858.75
2023-04-05T07:44:44.093Z,101863.91
2023-04-05T07:47:10.965Z,101862.50
2023-04-05T07:49:37.931Z,101853.88
2023-04-05T07:52:04.399Z,101856.00
2023-04-05T07:54:33.732Z,101860.53
2023-04-05T07:57:00.997Z,101866.28
2023-04-05T07:59:27.407Z,101860.53
2023-04-05T08:01:57.079Z,101862.19
2023-04-05T08:04:28.180Z,101868.06
2023-04-05T08:06:54.503Z,101871.69
2023-04-05T08:09:21.302Z,101858.78
2023-04-05T08:11:47.637Z,101865.19
2023-04-05T08:14:14.014Z,101865.94
2023-04-05T08:16:40.587Z,101862.53
2023-04-05T08:19:06.977Z,101856.69
2023-04-05T08:21:33.798Z,101857.28
2023-04-05T08:24:00.614Z,101855.28
2023-04-05T08:26:26.950Z,101864.03
2023-04-05T08:28:53.304Z,101853.78
2023-04-05T08:31:20.754Z,101853.91
2023-04-05T08:33:47.099Z,101856.78
2023-04-05T08:36:13.463Z,101853.91
2023-04-05T08:38:39.779Z,101852.53
2023-04-05T08:41:14.308Z,101849.78
2023-04-05T08:44:02.206Z,101857.78
2023-04-05T08:46:31.919Z,101847.03
2023-04-05T08:48:58.456Z,101852.78
2023-04-05T08:51:25.834Z,101852.78
2023-04-05T08:53:52.180Z,101850.78
2023-04-05T08:56:24.884Z,101844.28
2023-04-05T08:58:58.583Z,101854.28
2023-04-05T09:01:24.957Z,101857.03
2023-04-05T09:03:51.346Z,101838.53
2023-04-05T09:06:17.723Z,101839.28
2023-04-05T09:08:44.050Z,101843.75
2023-04-05T09:11:11.681Z,101844.50
2023-04-05T09:13:38.010Z,101837.25
2023-04-05T09:16:04.339Z,101835.75
2023-04-05T09:18:31.972Z,101833.00
2023-04-05T09:21:02.934Z,101833.13
2023-04-05T09:23:29.277Z,101837.25
2023-04-05T09:25:55.823Z,101837.38
2023-04-05T09:28:22.160Z,101830.22
2023-04-05T09:30:48.529Z,101828.75
2023-04-05T09:33:15.873Z,101833.13
2023-04-05T09:35:42.257Z,101823.00
2023-04-05T09:38:08.597Z,101828.75
2023-04-05T09:40:43.669Z,101840.38
2023-04-05T09:43:13.272Z,101822.34
2023-04-05T09:45:41.470Z,101830.34
2023-04-05T09:48:07.884Z,101829.00
2023-04-05T09:50:34.253Z,101825.47
2023-04-05T09:53:07.725Z,101816.22
2023-04-05T09:55:34.115Z,101810.56
2023-04-05T09:58:00.498Z,101816.34
2023-04-05T10:00:26.831Z,101812.19
2023-04-05T10:02:56.259Z,101809.19
2023-04-05T10:05:29.002Z,101806.19
2023-04-05T10:07:55.704Z,101809.19
2023-04-05T10:10:22.148Z,101812.06
2023-04-05T10:12:48.468Z,101811.94
2023-04-05T10:15:15.522Z,101811.94
2023-04-05T10:17:49.334Z,101806.19
2023-04-05T10:20:16.274Z,101811.94
2023-04-05T10:22:45.493Z,101804.06
2023-04-05T10:25:20.565Z,101801.19
2023-04-05T10:27:53.241Z,101803.44
2023-04-05T10:30:19.670Z,101801.28
2023-04-05T10:33:04.765Z,101799.06
2023-04-05T10:35:33.924Z,101796.94
2023-04-05T10:38:11.658Z,101798.41
2023-04-05T10:40:37.995Z,101801.41
2023-04-05T10:43:04.315Z,101807.19
2023-04-05T10:45:31.247Z,101803.56
2023-04-05T10:47:59.691Z,101798.53
2023-04-05T10:50:26.321Z,101792.66
2023-04-05T10:52:53.488Z,101792.03
2023-04-05T10:55:20.297Z,101799.19
2023-04-05T10:57:46.764Z,101795.53
2023-04-05T11:00:13.347Z,101788.41
2023-04-05T11:02:39.763Z,101794.78
2023-04-05T11:05:06.787Z,101791.16
2023-04-05T11:07:42.494Z,101800.44
2023-04-05T11:10:08.816Z,101793.94
2023-04-05T11:12:47.277Z,101784.53
2023-04-05T11:15:27.567Z,101791.16
2023-04-05T11:18:12.571Z,101784.66
2023-04-05T11:20:42.583Z,101791.28
2023-04-05T11:23:09.547Z,101783.41
2023-04-05T11:25:39.855Z,101786.28
2023-04-05T11:28:06.359Z,101784.91
2023-04-05T11:30:48.687Z,101779.16
2023-04-05T11:33:33.660Z,101784.13
2023-04-05T11:36:03.112Z,101778.25
2023-04-05T11:38:29.527Z,101778.78
2023-04-05T11:41:17.746Z,101780.16
2023-04-05T11:43:44.672Z,101780.06
2023-04-05T11:46:11.099Z,101798.69
2023-04-05T11:48:37.551Z,101792.19
2023-04-05T11:51:10.526Z,101788.44
2023-04-05T11:53:37.129Z,101792.69
2023-04-05T11:56:06.974Z,101785.69
2023-04-05T11:58:33.305Z,101781.41
2023-04-05T12:01:03.185Z,101783.56
2023-04-05T12:03:29.764Z,101774.19
2023-04-05T12:05:56.946Z,101774.28
2023-04-05T12:08:23.278Z,101775.03
2023-04-05T12:10:58.698Z,101763.53
2023-04-05T12:13:29.103Z,101762.66
2023-04-05T12:15:57.386Z,101770.66
2023-04-05T12:18:24.753Z,101763.41
2023-04-05T12:20:51.090Z,101768.31
2023-04-05T12:23:17.580Z,101762.63
2023-04-05T12:25:49.962Z,101762.88
2023-04-05T12:28:16.308Z,101758.63
2023-04-05T12:30:57.468Z,101743.22
2023-04-05T12:33:27.364Z,101749.59
2023-04-05T12:35:53.728Z,101743.94
2023-04-05T12:38:20.179Z,101743.91
2023-04-05T12:40:46.521Z,101732.94
2023-04-05T12:43:19.731Z,101739.03
2023-04-05T12:45:46.886Z,101740.66
2023-04-05T12:48:13.696Z,101736.50
2023-04-05T12:50:46.561Z,101733.22
2023-04-05T12:53:17.768Z,101732.22
2023-04-05T12:55:45.861Z,101733.22
2023-04-05T12:58:13.268Z,101736.94
2023-04-05T13:00:39.630Z,101729.69
2023-04-05T13:03:06.093Z,101730.94
2023-04-05T13:05:32.555Z,101724.44
2023-04-05T13:07:59.157Z,101720.69
2023-04-05T13:10:25.812Z,101728.19
2023-04-05T13:12:52.223Z,101733.94
2023-04-05T13:15:18.687Z,101720.94
2023-04-05T13:17:50.233Z,101719.19
2023-04-05T13:20:17.598Z,101714.66
2023-04-05T13:22:43.936Z,101716.41
2023-04-05T13:25:10.323Z,101713.78
2023-04-05T13:27:36.678Z,101712.66
2023-04-05T13:30:03.015Z,101715.66
2023-04-05T13:32:29.414Z,101711.88
2023-04-05T13:34:56.051Z,101709.91
2023-04-05T13:37:22.362Z,101709.13
2023-04-05T13:39:48.679Z,101710.75
2023-04-05T13:42:15.010Z,101710.13
2023-04-05T13:44:41.734Z,101698.47
2023-04-05T13:47:08.352Z,101698.47
2023-04-05T13:49:34.721Z,101698.47
2023-04-05T13:52:01.038Z,101698.38
2023-04-05T13:54:27.381Z,101699.13
2023-04-05T13:56:53.688Z,101698.38
2023-04-05T13:59:20.457Z,101688.59
2023-04-05T14:01:46.940Z,101692.34
2023-04-05T14:04:13.345Z,101691.59
2023-04-05T14:06:39.691Z,101687.34
2023-04-05T14:09:06.032Z,101683.84
2023-04-05T14:11:32.357Z,101680.31
2023-04-05T14:13:58.675Z,101685.44
2023-04-05T14:16:25.088Z,101680.53
2023-04-05T14:18:51.523Z,101680.53
2023-04-05T14:21:17.874Z,101672.56
2023-04-05T14:23:44.190Z,101656.28
2023-04-05T14:26:10.672Z,101660.63
2023-04-05T14:28:37.001Z,101660.88
2023-04-05T14:31:03.330Z,101659.47
2023-04-05T14:33:29.650Z,101658.00
2023-04-05T14:35:56.131Z,101660.75
2023-04-05T14:38:22.543Z,101659.25
2023-04-05T14:40:48.869Z,101652.00
2023-04-05T14:43:15.383Z,101652.00
2023-04-05T14:45:41.827Z,101655.63
2023-04-05T14:48:08.174Z,101659.25
2023-04-05T14:50:34.499Z,101660.75
2023-04-05T14:53:01.570Z,101646.25
2023-04-05T14:55:28.217Z,101654.00
2023-04-05T14:57:54.531Z,101654.75
2023-04-05T15:00:20.894Z,101647.53
2023-04-05T15:02:47.271Z,101646.13
2023-04-05T15:05:13.667Z,101648.25
2023-04-05T15:07:40.110Z,101650.28
2023-04-05T15:10:06.495Z,101647.41
2023-04-05T15:12:32.883Z,101643.78
2023-04-05T15:14:59.209Z,101635.88
2023-04-05T15:17:25.723Z,101638.75
2023-04-05T15:19:52.045Z,101638.75
2023-04-05T15:22:20.372Z,101628.63
2023-04-05T15:24:46.707Z,101624.25
2023-04-05T15:27:13.019Z,101632.88
2023-04-05T15:29:39.343Z,101639.50
2023-04-05T15:32:05.669Z,101634.25
2023-04-05T15:34:31.988Z,101632.25
2023-04-05T15:36:58.320Z,101633.00
2023-04-05T15:39:24.974Z,101629.47
2023-04-05T15:41:51.454Z,101624.50
2023-04-05T15:44:17.781Z,101624.50
2023-04-05T15:46:44.208Z,101622.97
2023-04-05T15:49:13.609Z,101620.97
2023-04-05T15:51:41.111Z,101615.09
2023-04-05T15:54:07.444Z,101621.72
2023-04-05T15:56:33.800Z,101621.72
2023-04-05T15:59:00.447Z,101622.47
2023-04-05T16:01:27.164Z,101616.59
2023-04-05T16:03:53.708Z,101619.59
2023-04-05T16:06:22.015Z,101623.22
2023-04-05T16:08:48.408Z,101621.72
2023-04-05T16:11:14.718Z,101613.72
2023-04-05T16:13:41.042Z,101615.97
2023-04-05T16:16:07.485Z,101618.84
2023-04-05T16:18:34.338Z,101615.97
2023-04-05T16:21:00.664Z,101610.66
2023-04-05T16:23:27.008Z,101608.94
2023-04-05T16:25:53.343Z,101612.16
2023-04-05T16:28:19.674Z,101609.16
2023-04-05T16:30:48.212Z,101601.16
2023-04-05T16:33:14.701Z,101613.59
2023-04-05T16:35:41.299Z,101609.25
2023-04-05T16:38:07.741Z,101614.22
2023-04-05T16:40:34.057Z,101612.97
2023-04-05T16:43:00.388Z,101615.00
2023-04-05T16:45:28.628Z,101620.75
2023-04-05T16:47:54.984Z,101618.50
2023-04-05T16:50:21.339Z,101619.97
2023-04-05T16:52:47.680Z,101619.25
2023-04-05T16:55:14.058Z,101619.88
2023-04-05T16:57:40.427Z,101608.47
2023-04-05T17:00:06.967Z,101623.63
2023-04-05T17:02:33.450Z,101615.72
2023-04-05T17:04:59.853Z,101612.19
2023-04-05T17:07:26.333Z,101619.34
2023-04-05T17:09:52.809Z,101607.72
2023-04-05T17:12:20.030Z,101605.59
2023-04-05T17:14:46.368Z,101614.03
2023-04-05T17:17:12.698Z,101604.50
2023-04-05T17:19:39.036Z,101609.75
2023-04-05T17:22:05.372Z,101611.75
2023-04-05T17:24:34.822Z,101618.38
2023-04-05T17:27:01.166Z,101611.03
2023-04-05T17:29:30.371Z,101614.75
2023-04-05T17:31:57.205Z,101615.38
2023-04-05T17:34:23.543Z,101618.25
2023-04-05T17:36:49.874Z,101619.53
2023-04-05T17:39:16.224Z,101623.03
2023-04-05T17:41:42.572Z,101614.56
2023-04-05T17:44:08.934Z,101625.41
2023-04-05T17:46:41.678Z,101621.25
2023-04-05T17:49:12.894Z,101621.25
2023-04-05T17:51:39.292Z,101624.00
2023-04-05T17:54:05.675Z,101628.28
2023-04-05T17:56:32.012Z,101634.78
2023-04-05T17:58:58.367Z,101633.94
2023-04-05T18:01:24.771Z,101636.69
2023-04-05T18:03:51.249Z,101632.41
2023-04-05T18:06:17.956Z,101632.28
2023-04-05T18:08:44.329Z,101629.53
2023-04-05T18:11:10.672Z,101633.06
2023-04-05T18:13:37.003Z,101638.28
2023-04-05T18:16:03.364Z,101639.78
2023-04-05T18:18:29.954Z,101655.56
2023-04-05T18:20:56.377Z,101636.81
2023-04-05T18:23:24.655Z,101641.03
2023-04-05T18:25:51.380Z,101645.31
2023-04-05T18:28:22.987Z,101645.31
2023-04-05T18:30:50.478Z,101638.06
2023-04-05T18:33:17.449Z,101642.31
2023-04-05T18:35:48.212Z,101647.34
2023-04-05T18:38:14.550Z,101648.06
2023-04-05T18:40:40.923Z,101655.22
2023-04-05T18:43:07.523Z,101648.06
2023-04-05T18:45:33.879Z,101658.09
2023-04-05T18:48:00.331Z,101658.09
2023-04-05T18:50:26.717Z,101657.06
2023-04-05T18:52:53.035Z,101657.28
2023-04-05T18:55:20.130Z,101651.53
2023-04-05T18:57:46.473Z,101657.06
2023-04-05T19:00:12.910Z,101657.81
2023-04-05T19:02:39.363Z,101662.81
2023-04-05T19:05:06.085Z,101652.78
2023-04-05T19:07:32.419Z,101658.44
2023-04-05T19:09:58.735Z,101671.56
2023-04-05T19:12:25.074Z,101667.31
2023-04-05T19:14:51.428Z,101667.31
2023-04-05T19:17:17.769Z,101670.19
2023-04-05T19:19:44.090Z,101673.81
2023-04-05T19:22:11.209Z,101668.78
2023-04-05T19:24:39.376Z,101673.81
2023-04-05T19:27:05.924Z,101663.03
2023-04-05T19:29:33.952Z,101668.78
2023-04-05T19:32:00.284Z,101662.16
2023-04-05T19:34:26.630Z,101663.69
2023-04-05T19:36:52.964Z,101665.69
2023-04-05T19:39:21.458Z,101663.69
2023-04-05T19:41:48.476Z,101657.81
2023-04-05T19:44:33.749Z,101662.16
2023-04-05T19:47:01.372Z,101660.06
2023-04-05T19:49:29.340Z,101669.31
2023-04-05T19:51:56.172Z,101666.56
2023-04-05T19:54:22.583Z,101659.28
2023-04-05T19:56:48.921Z,101661.56
2023-04-05T19:59:29.169Z,101662.28
2023-04-05T20:01:55.753Z,101663.69
2023-04-05T20:04:22.682Z,101668.78
2023-04-05T20:06:55.699Z,101655.06
2023-04-05T20:09:25.381Z,101654.31
2023-04-05T20:11:52.020Z,101661.56
2023-04-05T20:14:26.653Z,101658.66
2023-04-05T20:16:53.036Z,101668.06
2023-04-05T20:19:19.409Z,101654.31
2023-04-05T20:21:45.763Z,101658.78
2023-04-05T20:24:12.410Z,101648.66
2023-04-05T20:26:38.770Z,101646.53
2023-04-05T20:29:07.339Z,101657.28
2023-04-05T20:31:34.510Z,101651.53
2023-04-05T20:34:10.632Z,101647.16
2023-04-05T20:36:37.750Z,101642.78
2023-04-05T20:39:04.563Z,101644.28
2023-04-05T20:41:31.664Z,101638.41
2023-04-05T20:43:58.285Z,101639.16
2023-04-05T20:46:24.802Z,101639.78
2023-04-05T20:48:53.531Z,101640.53
2023-04-05T20:51:19.878Z,101639.69
2023-04-05T20:53:46.456Z,101635.28
2023-04-05T20:56:12.812Z,101628.03
2023-04-05T20:58:39.478Z,101644.56
2023-04-05T21:01:05.956Z,101633.69
2023-04-05T21:03:32.915Z,101635.81
2023-04-05T21:05:59.509Z,101628.56
2023-04-05T21:08:26.319Z,101640.84
2023-04-05T21:10:53.830Z,101641.47
2023-04-05T21:13:20.894Z,101633.56
2023-04-05T21:15:47.553Z,101630.56
2023-04-05T21:18:13.949Z,101634.84
2023-04-05T21:20:40.326Z,101640.59
2023-04-05T21:23:07.585Z,101639.09
2023-04-05T21:25:34.026Z,101637.59
2023-04-05T21:28:00.748Z,101635.34
2023-04-05T21:30:27.515Z,101633.81
2023-04-05T21:32:54.049Z,101633.81
2023-04-05T21:35:21.100Z,101643.81
2023-04-05T21:37:47.435Z,101632.97
2023-04-05T21:40:13.792Z,101637.94
2023-04-05T21:42:41.100Z,101635.06
2023-04-05T21:45:08.010Z,101641.47
2023-04-05T21:47:34.393Z,101641.47
2023-04-05T21:50:00.862Z,101636.34
2023-04-05T21:52:27.179Z,101638.47
2023-04-05T21:54:53.527Z,101636.97
2023-04-05T21:57:19.866Z,101632.59
2023-04-05T21:59:46.199Z,101636.09
2023-04-05T22:02:12.598Z,101635.34
2023-04-05T22:04:38.982Z,101633.88
2023-04-05T22:07:05.397Z,101628.13
2023-04-05T22:09:31.784Z,101623.72
2023-04-05T22:11:58.711Z,101636.63
2023-04-05T22:14:25.385Z,101629.38
2023-04-05T22:16:51.959Z,101630.09
2023-04-05T22:19:18.342Z,101627.88
2023-04-05T22:21:44.669Z,101629.25
2023-04-05T22:24:11.273Z,101630.63
2023-04-05T22:26:38.141Z,101630.63
2023-04-05T22:29:04.466Z,101629.13
2023-04-05T22:31:30.954Z,101639.13
2023-04-05T22:33:57.320Z,101631.91
2023-04-05T22:36:23.699Z,101626.16
2023-04-05T22:38:51.684Z,101627.50
2023-04-05T22:41:19.992Z,101629.03
2023-04-05T22:43:46.317Z,101628.91
2023-04-05T22:46:12.957Z,101622.38
2023-04-05T22:48:39.338Z,101636.00
2023-04-05T22:51:07.662Z,101634.53
2023-04-05T22:53:33.996Z,101634.41
2023-04-05T22:56:00.383Z,101630.16
2023-04-05T22:58:29.536Z,101632.28
2023-04-05T23:00:56.353Z,101638.66
2023-04-05T23:03:22.691Z,101626.41
2023-04-05T23:05:52.019Z,101628.53
2023-04-05T23:08:18.374Z,101619.16
2023-04-05T23:10:44.706Z,101629.94
2023-04-05T23:13:11.614Z,101628.41
2023-04-05T23:15:37.979Z,101621.91
2023-04-05T23:18:04.384Z,101626.94
2023-04-05T23:20:30.860Z,101624.66
2023-04-05T23:22:57.211Z,101623.94
2023-04-05T23:25:23.548Z,101629.69
2023-04-05T23:27:49.915Z,101625.28
2023-04-05T23:30:16.263Z,101626.69
2023-04-05T23:32:42.631Z,101623.81
2023-04-05T23:35:09.058Z,101620.94
2023-04-05T23:37:35.474Z,101620.31
2023-04-05T23:40:01.881Z,101614.56
2023-04-05T23:42:28.232Z,101614.03
2023-04-05T23:44:54.616Z,101619.16
2023-04-05T23:47:20.945Z,101611.28
2023-04-05T23:49:47.285Z,101614.28
2023-04-05T23:52:13.618Z,101611.41
2023-04-05T23:54:39.978Z,101607.13
2023-04-05T23:57:06.436Z,101615.13
2023-04-05T23:59:32.800Z,101610.00
